createdAt,value
2023-02-03T00:00:13.329Z,78.99
2023-02-03T00:00:45.123Z,79.34
2023-02-03T00:01:16.968Z,79.41
2023-02-03T00:01:48.680Z,79.27
2023-02-03T00:02:20.382Z,79.28
2023-02-03T00:02:52.085Z,79.31
2023-02-03T00:03:23.939Z,79.27
2023-02-03T00:03:58.031Z,79.55
2023-02-03T00:04:29.673Z,79.32
2023-02-03T00:05:01.999Z,79.18
2023-02-03T00:05:36.729Z,79.03
2023-02-03T00:06:08.660Z,79.11
2023-02-03T00:06:40.849Z,79.19
2023-02-03T00:07:14.715Z,79.17
2023-02-03T00:07:46.578Z,79.08
2023-02-03T00:08:22.561Z,79.16
2023-02-03T00:08:59.376Z,79.16
2023-02-03T00:09:31.372Z,79.00
2023-02-03T00:10:03.982Z,79.30
2023-02-03T00:10:40.503Z,79.33
2023-02-03T00:11:12.419Z,79.01
2023-02-03T00:11:44.193Z,79.36
2023-02-03T00:12:15.908Z,79.47
2023-02-03T00:12:58.031Z,79.45
2023-02-03T00:13:29.989Z,79.60
2023-02-03T00:14:01.625Z,79.75
2023-02-03T00:14:33.711Z,79.57
2023-02-03T00:15:05.969Z,79.49
2023-02-03T00:15:39.964Z,79.63
2023-02-03T00:16:57.152Z,79.68
2023-02-03T00:17:28.845Z,79.73
2023-02-03T00:18:04.281Z,79.35
2023-02-03T00:18:35.914Z,79.81
2023-02-03T00:19:08.947Z,79.98
2023-02-03T00:19:42.487Z,79.96
2023-02-03T00:20:14.139Z,79.96
2023-02-03T00:20:48.357Z,79.98
2023-02-03T00:21:20.489Z,80.22
2023-02-03T00:21:56.887Z,80.33
2023-02-03T00:22:28.578Z,80.99
2023-02-03T00:23:05.288Z,80.30
2023-02-03T00:23:37.047Z,80.38
2023-02-03T00:24:08.879Z,80.21
2023-02-03T00:24:40.563Z,80.19
2023-02-03T00:25:12.234Z,80.09
2023-02-03T00:25:46.274Z,80.21
2023-02-03T00:26:20.084Z,80.27
2023-02-03T00:26:51.719Z,80.26
2023-02-03T00:27:23.400Z,80.30
2023-02-03T00:27:55.072Z,80.43
2023-02-03T00:28:31.884Z,80.36
2023-02-03T00:29:03.527Z,80.17
2023-02-03T00:29:35.202Z,80.32
2023-02-03T00:30:08.605Z,80.01
2023-02-03T00:30:40.244Z,80.13
2023-02-03T00:31:20.541Z,79.95
2023-02-03T00:31:54.098Z,80.19
2023-02-03T00:32:25.970Z,80.00
2023-02-03T00:32:57.781Z,79.96
2023-02-03T00:33:31.510Z,80.19
2023-02-03T00:34:05.442Z,79.38
2023-02-03T00:34:38.467Z,79.83
2023-02-03T00:35:10.091Z,79.81
2023-02-03T00:35:44.442Z,79.65
2023-02-03T00:36:16.074Z,79.70
2023-02-03T00:36:48.425Z,79.70
2023-02-03T00:37:20.129Z,79.97
2023-02-03T00:37:54.604Z,79.89
2023-02-03T00:38:28.981Z,79.67
2023-02-03T00:39:01.566Z,79.94
2023-02-03T00:39:33.216Z,79.86
2023-02-03T00:40:05.315Z,79.73
2023-02-03T00:40:36.991Z,79.91
2023-02-03T00:41:11.293Z,79.76
2023-02-03T00:41:43.088Z,79.63
2023-02-03T00:42:15.396Z,79.54
2023-02-03T00:42:49.414Z,79.59
2023-02-03T00:43:21.811Z,79.46
2023-02-03T00:43:54.681Z,79.61
2023-02-03T00:44:26.312Z,79.63
2023-02-03T00:44:57.974Z,79.60
2023-02-03T00:45:29.640Z,79.40
2023-02-03T00:46:01.470Z,79.32
2023-02-03T00:46:34.965Z,79.58
2023-02-03T00:47:06.664Z,79.57
2023-02-03T00:47:38.910Z,79.47
2023-02-03T00:48:10.594Z,79.17
2023-02-03T00:48:42.261Z,79.05
2023-02-03T00:49:16.290Z,79.12
2023-02-03T00:49:47.932Z,79.02
2023-02-03T00:50:19.721Z,78.81
2023-02-03T00:50:51.424Z,79.04
2023-02-03T00:51:23.113Z,78.90
2023-02-03T00:51:54.755Z,78.80
2023-02-03T00:52:26.393Z,78.84
2023-02-03T00:52:58.035Z,78.83
2023-02-03T00:53:29.678Z,78.69
2023-02-03T00:54:03.671Z,78.86
2023-02-03T00:54:35.328Z,78.83
2023-02-03T00:55:07.648Z,78.96
2023-02-03T00:55:39.284Z,78.61
2023-02-03T00:56:12.865Z,78.55
2023-02-03T00:56:44.682Z,78.64
2023-02-03T00:57:16.326Z,78.59
2023-02-03T00:57:47.987Z,78.86
2023-02-03T00:58:19.695Z,78.95
2023-02-03T00:58:51.346Z,79.40
2023-02-03T00:59:22.992Z,78.76
2023-02-03T00:59:58.021Z,78.61
2023-02-03T01:00:29.679Z,78.63
2023-02-03T01:01:01.358Z,78.53
2023-02-03T01:01:36.912Z,78.69
2023-02-03T01:02:08.704Z,78.48
2023-02-03T01:02:40.489Z,78.70
2023-02-03T01:03:12.258Z,78.55
2023-02-03T01:03:43.936Z,78.75
2023-02-03T01:04:17.605Z,78.70
2023-02-03T01:04:49.564Z,78.88
2023-02-03T01:05:21.273Z,78.63
2023-02-03T01:05:53.023Z,78.65
2023-02-03T01:06:30.839Z,78.92
2023-02-03T01:07:02.534Z,78.72
2023-02-03T01:07:38.256Z,78.64
2023-02-03T01:08:12.001Z,78.97
2023-02-03T01:08:43.710Z,78.86
2023-02-03T01:09:15.341Z,78.90
2023-02-03T01:09:46.984Z,78.86
2023-02-03T01:10:19.899Z,78.83
2023-02-03T01:10:51.565Z,78.63
2023-02-03T01:11:29.217Z,78.71
2023-02-03T01:12:01.246Z,79.05
2023-02-03T01:12:33.298Z,79.08
2023-02-03T01:13:04.934Z,79.08
2023-02-03T01:13:37.482Z,79.16
2023-02-03T01:14:09.472Z,78.90
2023-02-03T01:14:43.026Z,78.97
2023-02-03T01:15:14.709Z,78.79
2023-02-03T01:15:48.271Z,79.06
2023-02-03T01:16:22.841Z,79.07
2023-02-03T01:16:54.585Z,79.08
2023-02-03T01:17:26.358Z,79.01
2023-02-03T01:18:00.095Z,79.22
2023-02-03T01:18:31.759Z,79.29
2023-02-03T01:19:03.994Z,79.04
2023-02-03T01:19:35.635Z,78.90
2023-02-03T01:20:07.715Z,79.01
2023-02-03T01:20:39.376Z,78.96
2023-02-03T01:21:17.823Z,78.88
2023-02-03T01:21:49.477Z,79.13
2023-02-03T01:22:21.189Z,79.17
2023-02-03T01:22:52.891Z,78.96
2023-02-03T01:23:24.563Z,79.22
2023-02-03T01:23:56.466Z,79.03
2023-02-03T01:24:33.480Z,78.90
2023-02-03T01:25:07.993Z,79.19
2023-02-03T01:25:39.645Z,79.28
2023-02-03T01:26:14.215Z,79.14
2023-02-03T01:26:45.925Z,79.75
2023-02-03T01:27:17.617Z,79.12
2023-02-03T01:27:49.298Z,79.15
2023-02-03T01:28:20.980Z,79.55
2023-02-03T01:29:00.298Z,79.49
2023-02-03T01:29:37.074Z,79.50
2023-02-03T01:30:09.508Z,79.64
2023-02-03T01:30:41.247Z,79.63
2023-02-03T01:31:47.705Z,80.03
2023-02-03T01:32:19.633Z,79.86
2023-02-03T01:32:51.312Z,79.64
2023-02-03T01:33:23.285Z,80.22
2023-02-03T01:33:55.945Z,80.27
2023-02-03T01:34:27.664Z,80.36
2023-02-03T01:35:01.351Z,80.60
2023-02-03T01:35:34.986Z,80.51
2023-02-03T01:36:10.121Z,80.67
2023-02-03T01:36:42.193Z,80.54
2023-02-03T01:37:17.174Z,80.42
2023-02-03T01:37:48.837Z,80.09
2023-02-03T01:38:29.873Z,80.42
2023-02-03T01:39:01.956Z,80.54
2023-02-03T01:39:33.617Z,80.59
2023-02-03T01:40:05.810Z,80.77
2023-02-03T01:40:43.772Z,80.41
2023-02-03T01:41:21.054Z,80.79
2023-02-03T01:41:55.469Z,80.91
2023-02-03T01:42:28.812Z,80.97
2023-02-03T01:43:04.926Z,80.62
2023-02-03T01:43:39.930Z,80.64
2023-02-03T01:44:45.045Z,80.65
2023-02-03T01:45:19.492Z,80.99
2023-02-03T01:45:52.386Z,81.24
2023-02-03T01:46:42.152Z,80.71
2023-02-03T01:47:19.236Z,80.85
2023-02-03T01:47:55.354Z,81.13
2023-02-03T01:48:27.706Z,81.07
2023-02-03T01:49:08.500Z,80.74
2023-02-03T01:49:45.606Z,80.90
2023-02-03T01:51:13.084Z,81.27
2023-02-03T01:51:46.171Z,81.04
2023-02-03T01:52:20.263Z,81.01
2023-02-03T01:52:58.737Z,81.29
2023-02-03T01:53:33.303Z,81.91
2023-02-03T01:54:09.943Z,81.18
2023-02-03T01:54:46.587Z,81.67
2023-02-03T01:55:27.709Z,81.48
2023-02-03T01:56:01.724Z,81.68
2023-02-03T01:56:41.268Z,81.47
2023-02-03T01:57:21.848Z,81.70
2023-02-03T01:58:03.508Z,81.56
2023-02-03T01:58:39.674Z,81.71
2023-02-03T01:59:15.174Z,81.43
2023-02-03T01:59:48.209Z,81.88
2023-02-03T02:00:22.714Z,81.70
2023-02-03T02:00:57.537Z,81.55
2023-02-03T02:01:31.808Z,81.56
2023-02-03T02:02:08.761Z,81.71
2023-02-03T02:02:46.685Z,81.78
2023-02-03T02:03:27.326Z,81.61
2023-02-03T02:04:03.042Z,82.12
2023-02-03T02:05:00.734Z,82.11
2023-02-03T02:05:56.704Z,81.87
2023-02-03T02:06:30.934Z,81.88
2023-02-03T02:07:02.759Z,81.57
2023-02-03T02:07:38.248Z,81.61
2023-02-03T02:08:12.971Z,81.91
2023-02-03T02:08:48.721Z,81.82
2023-02-03T02:09:24.353Z,81.46
2023-02-03T02:09:56.706Z,81.86
2023-02-03T02:10:30.611Z,82.22
2023-02-03T02:11:05.115Z,81.93
2023-02-03T02:11:37.654Z,81.97
2023-02-03T02:12:13.599Z,82.13
2023-02-03T02:12:52.893Z,81.62
2023-02-03T02:13:25.674Z,82.29
2023-02-03T02:14:02.769Z,81.92
2023-02-03T02:14:34.432Z,82.16
2023-02-03T02:15:06.925Z,81.54
2023-02-03T02:15:58.415Z,81.69
2023-02-03T02:16:51.417Z,82.23
2023-02-03T02:18:20.600Z,81.86
2023-02-03T02:19:10.508Z,81.69
2023-02-03T02:20:29.098Z,81.99
2023-02-03T02:21:25.417Z,81.75
2023-02-03T02:22:18.387Z,82.11
2023-02-03T02:22:58.709Z,81.95
2023-02-03T02:24:03.991Z,81.48
2023-02-03T02:24:54.357Z,81.66
2023-02-03T02:25:34.790Z,81.68
2023-02-03T02:26:40.449Z,81.56
2023-02-03T02:27:23.886Z,81.43
2023-02-03T02:28:08.178Z,81.21
2023-02-03T02:28:45.915Z,81.11
2023-02-03T02:29:51.379Z,81.17
2023-02-03T02:30:44.530Z,80.99
2023-02-03T02:31:54.384Z,80.93
2023-02-03T02:32:50.653Z,81.04
2023-02-03T02:33:37.000Z,81.11
2023-02-03T02:34:24.862Z,81.42
2023-02-03T02:35:13.275Z,81.15
2023-02-03T02:35:58.865Z,81.14
2023-02-03T02:36:36.069Z,81.41
2023-02-03T02:37:23.996Z,81.58
2023-02-03T02:38:28.322Z,81.01
2023-02-03T02:39:20.493Z,81.24
2023-02-03T02:40:09.919Z,81.42
2023-02-03T02:40:50.746Z,81.38
2023-02-03T02:41:41.682Z,81.33
2023-02-03T02:42:21.663Z,81.25
2023-02-03T02:43:16.688Z,81.50
2023-02-03T02:44:01.750Z,80.82
2023-02-03T02:44:47.232Z,80.64
2023-02-03T02:45:39.631Z,80.81
2023-02-03T02:46:17.349Z,81.08
2023-02-03T02:47:00.586Z,80.82
2023-02-03T02:47:32.554Z,80.93
2023-02-03T02:48:17.051Z,81.00
2023-02-03T02:49:05.717Z,80.99
2023-02-03T02:50:03.332Z,81.05
2023-02-03T02:50:41.737Z,81.35
2023-02-03T02:51:16.062Z,81.61
2023-02-03T02:51:50.315Z,81.50
2023-02-03T02:52:27.500Z,81.49
2023-02-03T02:53:00.035Z,81.50
2023-02-03T02:53:38.342Z,82.38
2023-02-03T02:54:20.282Z,82.15
2023-02-03T02:54:58.857Z,81.96
2023-02-03T02:55:35.208Z,82.48
2023-02-03T02:56:11.595Z,82.15
2023-02-03T02:56:48.306Z,82.57
2023-02-03T02:57:24.601Z,82.12
2023-02-03T02:58:09.580Z,82.44
2023-02-03T02:58:47.240Z,82.50
2023-02-03T02:59:21.988Z,82.29
2023-02-03T02:59:54.743Z,82.30
2023-02-03T03:00:30.851Z,82.16
2023-02-03T03:01:09.095Z,82.67
2023-02-03T03:01:41.328Z,82.18
2023-02-03T03:02:13.133Z,82.08
2023-02-03T03:02:44.770Z,82.65
2023-02-03T03:03:25.337Z,82.77
2023-02-03T03:04:00.409Z,82.56
2023-02-03T03:04:37.813Z,82.69
2023-02-03T03:05:12.223Z,81.99
2023-02-03T03:05:56.195Z,82.62
2023-02-03T03:06:44.242Z,82.38
2023-02-03T03:07:26.155Z,82.14
2023-02-03T03:08:04.816Z,82.07
2023-02-03T03:08:40.426Z,82.56
2023-02-03T03:09:28.448Z,82.11
2023-02-03T03:10:07.619Z,82.21
2023-02-03T03:10:44.264Z,81.88
2023-02-03T03:11:18.388Z,82.05
2023-02-03T03:11:56.413Z,81.77
2023-02-03T03:12:34.812Z,82.08
2023-02-03T03:13:13.916Z,81.84
2023-02-03T03:13:53.370Z,81.72
2023-02-03T03:14:31.120Z,81.85
2023-02-03T03:15:11.436Z,81.77
2023-02-03T03:15:45.678Z,81.90
2023-02-03T03:16:22.880Z,81.42
2023-02-03T03:17:04.742Z,81.09
2023-02-03T03:17:52.098Z,81.75
2023-02-03T03:18:51.211Z,81.23
2023-02-03T03:19:27.068Z,81.72
2023-02-03T03:20:06.827Z,81.40
2023-02-03T03:20:44.260Z,81.01
2023-02-03T03:21:34.976Z,81.71
2023-02-03T03:22:11.556Z,81.84
2023-02-03T03:23:10.759Z,81.51
2023-02-03T03:23:48.641Z,81.43
2023-02-03T03:24:27.879Z,81.81
2023-02-03T03:25:06.879Z,81.85
2023-02-03T03:25:46.695Z,82.04
2023-02-03T03:26:23.280Z,82.05
2023-02-03T03:27:08.225Z,81.96
2023-02-03T03:27:45.091Z,82.55
2023-02-03T03:28:26.598Z,81.97
2023-02-03T03:29:28.910Z,82.31
2023-02-03T03:30:06.437Z,82.11
2023-02-03T03:30:39.891Z,82.10
2023-02-03T03:31:11.715Z,82.50
2023-02-03T03:31:45.665Z,82.43
2023-02-03T03:32:20.252Z,82.41
2023-02-03T03:32:52.868Z,82.65
2023-02-03T03:33:24.714Z,82.33
2023-02-03T03:33:56.505Z,82.24
2023-02-03T03:34:29.395Z,82.45
2023-02-03T03:35:03.360Z,82.47
2023-02-03T03:35:53.512Z,82.31
2023-02-03T03:36:37.527Z,82.00
2023-02-03T03:37:19.909Z,81.93
2023-02-03T03:38:00.369Z,82.38
2023-02-03T03:38:50.667Z,82.66
2023-02-03T03:39:51.742Z,82.37
2023-02-03T03:40:34.929Z,82.42
2023-02-03T03:41:36.706Z,82.05
2023-02-03T03:42:40.311Z,82.23
2023-02-03T03:43:20.120Z,82.07
2023-02-03T03:43:57.358Z,82.94
2023-02-03T03:44:38.099Z,82.36
2023-02-03T03:45:28.325Z,82.93
2023-02-03T03:46:08.897Z,82.15
2023-02-03T03:46:55.684Z,82.01
2023-02-03T03:47:38.297Z,82.17
2023-02-03T03:48:16.408Z,82.09
2023-02-03T03:49:01.507Z,82.34
2023-02-03T03:49:35.785Z,82.70
2023-02-03T03:50:14.388Z,82.61
2023-02-03T03:50:58.375Z,82.01
2023-02-03T03:51:41.842Z,81.98
2023-02-03T03:52:21.755Z,82.37
2023-02-03T03:52:56.087Z,82.28
2023-02-03T03:53:34.747Z,82.22
2023-02-03T03:54:11.708Z,82.13
2023-02-03T03:54:47.480Z,81.77
2023-02-03T03:55:20.791Z,81.96
2023-02-03T03:55:54.914Z,81.93
2023-02-03T03:56:35.185Z,81.93
2023-02-03T03:57:23.719Z,81.77
2023-02-03T03:58:02.020Z,81.53
2023-02-03T03:58:33.636Z,81.84
2023-02-03T03:59:08.931Z,81.26
2023-02-03T03:59:46.797Z,81.63
2023-02-03T04:00:24.176Z,80.83
2023-02-03T04:01:00.962Z,81.27
2023-02-03T04:01:33.317Z,81.37
2023-02-03T04:02:05.314Z,81.57
2023-02-03T04:02:40.698Z,80.91
2023-02-03T04:03:23.421Z,81.05
2023-02-03T04:04:02.156Z,80.95
2023-02-03T04:04:37.782Z,80.11
2023-02-03T04:05:12.523Z,80.30
2023-02-03T04:05:44.261Z,80.00
2023-02-03T04:06:16.071Z,80.26
2023-02-03T04:06:47.741Z,80.28
2023-02-03T04:07:20.359Z,80.40
2023-02-03T04:07:51.996Z,79.33
2023-02-03T04:08:23.754Z,79.69
2023-02-03T04:08:58.700Z,79.80
2023-02-03T04:09:32.759Z,79.63
2023-02-03T04:10:12.056Z,79.02
2023-02-03T04:10:44.594Z,78.57
2023-02-03T04:11:36.209Z,78.92
2023-02-03T04:12:16.526Z,78.45
2023-02-03T04:12:48.161Z,78.24
2023-02-03T04:13:20.800Z,77.51
2023-02-03T04:13:52.464Z,77.09
2023-02-03T04:14:24.187Z,77.72
2023-02-03T04:14:55.817Z,76.94
2023-02-03T04:15:28.267Z,77.39
2023-02-03T04:16:02.005Z,76.69
2023-02-03T04:16:33.718Z,76.71
2023-02-03T04:17:05.973Z,76.76
2023-02-03T04:17:37.644Z,76.85
2023-02-03T04:18:13.119Z,76.74
2023-02-03T04:18:44.754Z,77.03
2023-02-03T04:19:16.382Z,76.49
2023-02-03T04:19:48.996Z,75.87
2023-02-03T04:20:21.303Z,75.71
2023-02-03T04:20:52.995Z,76.22
2023-02-03T04:21:24.682Z,75.75
2023-02-03T04:21:56.362Z,75.94
2023-02-03T04:22:27.981Z,75.89
2023-02-03T04:22:59.872Z,76.09
2023-02-03T04:23:31.606Z,75.60
2023-02-03T04:24:06.052Z,76.21
2023-02-03T04:24:37.713Z,76.04
2023-02-03T04:25:16.955Z,75.38
2023-02-03T04:25:48.613Z,75.73
2023-02-03T04:26:20.323Z,75.62
2023-02-03T04:26:54.700Z,75.67
2023-02-03T04:27:26.914Z,74.77
2023-02-03T04:27:58.644Z,75.31
2023-02-03T04:28:30.289Z,75.43
2023-02-03T04:29:02.737Z,74.91
2023-02-03T04:29:34.405Z,75.30
2023-02-03T04:30:06.739Z,75.11
2023-02-03T04:30:38.436Z,74.62
2023-02-03T04:31:10.299Z,74.53
2023-02-03T04:31:43.685Z,74.61
2023-02-03T04:32:15.337Z,74.60
2023-02-03T04:32:47.918Z,74.55
2023-02-03T04:33:21.998Z,74.46
2023-02-03T04:33:53.646Z,74.30
2023-02-03T04:34:27.711Z,73.88
2023-02-03T04:34:59.409Z,73.95
2023-02-03T04:35:31.084Z,73.97
2023-02-03T04:36:02.734Z,74.48
2023-02-03T04:36:34.487Z,74.24
2023-02-03T04:37:09.002Z,74.28
2023-02-03T04:37:41.108Z,74.40
2023-02-03T04:38:12.747Z,73.98
2023-02-03T04:38:44.389Z,74.48
2023-02-03T04:39:16.035Z,74.19
2023-02-03T04:39:52.700Z,74.95
2023-02-03T04:40:24.343Z,74.08
2023-02-03T04:40:56.043Z,74.16
2023-02-03T04:41:27.720Z,74.66
2023-02-03T04:41:59.353Z,74.32
2023-02-03T04:42:31.165Z,74.12
2023-02-03T04:43:07.775Z,74.31
2023-02-03T04:43:39.449Z,74.87
2023-02-03T04:44:11.114Z,75.02
2023-02-03T04:44:42.741Z,74.79
2023-02-03T04:45:14.373Z,74.73
2023-02-03T04:45:46.081Z,74.50
2023-02-03T04:46:19.007Z,74.54
2023-02-03T04:46:50.939Z,74.57
2023-02-03T04:47:22.632Z,74.74
2023-02-03T04:47:54.753Z,75.14
2023-02-03T04:48:26.804Z,75.10
2023-02-03T04:48:58.408Z,75.22
2023-02-03T04:49:30.056Z,75.24
2023-02-03T04:50:02.282Z,75.03
2023-02-03T04:50:33.947Z,75.19
2023-02-03T04:51:08.234Z,75.16
2023-02-03T04:51:39.900Z,75.27
2023-02-03T04:52:14.988Z,75.49
2023-02-03T04:52:47.890Z,75.78
2023-02-03T04:53:19.550Z,75.88
2023-02-03T04:53:51.222Z,75.75
2023-02-03T04:54:22.892Z,75.85
2023-02-03T04:54:57.120Z,75.44
2023-02-03T04:55:30.732Z,75.55
2023-02-03T04:56:02.497Z,75.55
2023-02-03T04:56:34.111Z,75.39
2023-02-03T04:57:08.159Z,75.20
2023-02-03T04:57:39.844Z,75.27
2023-02-03T04:58:11.476Z,75.47
2023-02-03T04:58:43.218Z,75.28
2023-02-03T04:59:14.898Z,74.81
2023-02-03T04:59:46.574Z,74.95
2023-02-03T05:00:18.411Z,74.80
2023-02-03T05:00:50.155Z,74.89
2023-02-03T05:01:21.957Z,74.43
2023-02-03T05:01:53.778Z,74.83
2023-02-03T05:02:25.413Z,74.49
2023-02-03T05:02:57.307Z,74.82
2023-02-03T05:03:29.014Z,74.45
2023-02-03T05:04:00.826Z,73.91
2023-02-03T05:04:32.477Z,74.08
2023-02-03T05:05:04.399Z,73.81
2023-02-03T05:05:35.988Z,73.91
2023-02-03T05:06:07.731Z,73.93
2023-02-03T05:06:39.425Z,73.73
2023-02-03T05:07:13.242Z,74.00
2023-02-03T05:07:44.880Z,73.90
2023-02-03T05:08:18.685Z,73.79
2023-02-03T05:08:52.445Z,73.73
2023-02-03T05:09:25.475Z,74.22
2023-02-03T05:09:57.124Z,74.34
2023-02-03T05:10:29.022Z,74.49
2023-02-03T05:11:02.319Z,74.71
2023-02-03T05:11:34.121Z,74.71
2023-02-03T05:12:06.063Z,74.95
2023-02-03T05:12:37.823Z,75.03
2023-02-03T05:13:09.495Z,75.72
2023-02-03T05:13:43.559Z,76.05
2023-02-03T05:14:15.257Z,76.35
2023-02-03T05:14:46.928Z,76.21
2023-02-03T05:15:18.562Z,76.40
2023-02-03T05:15:50.259Z,76.92
2023-02-03T05:16:22.350Z,77.05
2023-02-03T05:16:54.154Z,77.48
2023-02-03T05:17:25.955Z,77.54
2023-02-03T05:17:59.745Z,77.80
2023-02-03T05:18:31.400Z,77.95
2023-02-03T05:19:03.195Z,77.88
2023-02-03T05:19:37.545Z,77.86
2023-02-03T05:20:09.923Z,77.63
2023-02-03T05:20:41.596Z,77.38
2023-02-03T05:21:13.396Z,77.94
2023-02-03T05:21:45.028Z,77.30
2023-02-03T05:22:16.757Z,77.59
2023-02-03T05:22:48.420Z,77.54
2023-02-03T05:23:28.787Z,77.48
2023-02-03T05:24:00.660Z,77.25
2023-02-03T05:24:32.314Z,77.78
2023-02-03T05:25:05.193Z,77.15
2023-02-03T05:25:36.822Z,77.17
2023-02-03T05:26:08.572Z,77.17
2023-02-03T05:26:40.243Z,77.32
2023-02-03T05:27:12.043Z,77.07
2023-02-03T05:27:46.533Z,77.20
2023-02-03T05:28:18.305Z,77.03
2023-02-03T05:28:50.626Z,77.20
2023-02-03T05:29:23.412Z,77.21
2023-02-03T05:29:55.119Z,76.72
2023-02-03T05:30:27.081Z,77.11
2023-02-03T05:31:00.548Z,77.16
2023-02-03T05:31:33.675Z,76.89
2023-02-03T05:32:05.654Z,76.80
2023-02-03T05:32:37.313Z,76.64
2023-02-03T05:33:09.022Z,76.45
2023-02-03T05:33:40.714Z,76.71
2023-02-03T05:34:12.326Z,76.45
2023-02-03T05:34:44.011Z,77.10
2023-02-03T05:35:15.897Z,76.41
2023-02-03T05:35:49.856Z,76.67
2023-02-03T05:36:21.511Z,76.36
2023-02-03T05:36:55.659Z,76.60
2023-02-03T05:37:27.317Z,76.66
2023-02-03T05:37:59.552Z,76.38
2023-02-03T05:38:31.215Z,76.69
2023-02-03T05:39:07.401Z,76.44
2023-02-03T05:39:39.048Z,76.01
2023-02-03T05:40:37.195Z,76.46
2023-02-03T05:41:35.487Z,76.60
2023-02-03T05:42:07.116Z,76.64
2023-02-03T05:42:40.617Z,76.77
2023-02-03T05:43:12.473Z,76.73
2023-02-03T05:43:44.095Z,76.99
2023-02-03T05:44:18.257Z,77.03
2023-02-03T05:44:49.898Z,76.89
2023-02-03T05:45:21.561Z,77.05
2023-02-03T05:45:53.285Z,76.46
2023-02-03T05:46:28.983Z,76.81
2023-02-03T05:47:00.702Z,77.36
2023-02-03T05:47:34.118Z,77.20
2023-02-03T05:48:07.369Z,76.71
2023-02-03T05:48:39.074Z,84.44
2023-02-03T05:49:10.711Z,79.40
2023-02-03T05:49:42.382Z,77.72
2023-02-03T05:50:14.048Z,77.27
2023-02-03T05:50:45.785Z,77.47
2023-02-03T05:51:17.604Z,77.17
2023-02-03T05:51:50.345Z,77.08
2023-02-03T05:52:22.002Z,76.81
2023-02-03T05:52:53.647Z,76.96
2023-02-03T05:53:26.227Z,76.59
2023-02-03T05:53:57.860Z,77.09
2023-02-03T05:54:29.559Z,77.02
2023-02-03T05:55:01.197Z,76.92
2023-02-03T05:55:34.191Z,77.00
2023-02-03T05:56:06.153Z,77.05
2023-02-03T05:56:38.487Z,76.88
2023-02-03T05:57:10.174Z,76.54
2023-02-03T05:57:42.108Z,76.96
2023-02-03T05:58:13.928Z,76.52
2023-02-03T05:58:45.546Z,76.37
2023-02-03T05:59:17.483Z,76.59
2023-02-03T05:59:49.930Z,76.44
2023-02-03T06:00:22.513Z,76.83
2023-02-03T06:00:54.142Z,76.33
2023-02-03T06:01:26.043Z,76.69
2023-02-03T06:02:00.041Z,77.08
2023-02-03T06:02:31.687Z,76.76
2023-02-03T06:03:05.467Z,76.42
2023-02-03T06:03:39.887Z,76.93
2023-02-03T06:04:11.881Z,76.69
2023-02-03T06:04:45.669Z,76.69
2023-02-03T06:05:17.417Z,76.40
2023-02-03T06:05:51.882Z,76.33
2023-02-03T06:06:23.819Z,76.47
2023-02-03T06:06:55.429Z,76.35
2023-02-03T06:07:27.103Z,76.29
2023-02-03T06:07:59.345Z,76.13
2023-02-03T06:08:33.967Z,76.31
2023-02-03T06:09:08.880Z,76.24
2023-02-03T06:09:40.556Z,76.17
2023-02-03T06:10:12.205Z,76.03
2023-02-03T06:10:43.887Z,76.21
2023-02-03T06:11:17.397Z,76.52
2023-02-03T06:11:49.205Z,76.54
2023-02-03T06:12:26.459Z,76.49
2023-02-03T06:12:59.172Z,76.16
2023-02-03T06:13:31.248Z,76.29
2023-02-03T06:14:03.968Z,76.51
2023-02-03T06:14:35.616Z,76.00
2023-02-03T06:15:08.517Z,75.91
2023-02-03T06:15:40.327Z,76.03
2023-02-03T06:16:12.089Z,76.25
2023-02-03T06:16:43.749Z,76.04
2023-02-03T06:17:15.446Z,76.11
2023-02-03T06:17:48.962Z,75.17
2023-02-03T06:18:21.059Z,75.48
2023-02-03T06:18:55.918Z,75.72
2023-02-03T06:19:27.587Z,75.75
2023-02-03T06:19:59.269Z,75.79
2023-02-03T06:20:31.144Z,75.38
2023-02-03T06:21:02.847Z,75.74
2023-02-03T06:21:34.463Z,75.45
2023-02-03T06:22:06.111Z,75.36
2023-02-03T06:22:39.675Z,75.37
2023-02-03T06:23:11.572Z,75.42
2023-02-03T06:23:46.070Z,75.05
2023-02-03T06:24:20.580Z,75.01
2023-02-03T06:24:52.246Z,74.81
2023-02-03T06:25:24.412Z,75.04
2023-02-03T06:25:58.292Z,74.87
2023-02-03T06:26:32.441Z,75.11
2023-02-03T06:27:04.187Z,74.64
2023-02-03T06:27:35.969Z,74.61
2023-02-03T06:28:07.791Z,74.56
2023-02-03T06:28:39.606Z,74.17
2023-02-03T06:29:11.360Z,74.59
2023-02-03T06:29:43.057Z,74.29
2023-02-03T06:30:14.840Z,74.44
2023-02-03T06:30:50.470Z,74.87
2023-02-03T06:31:22.404Z,74.88
2023-02-03T06:31:54.310Z,74.40
2023-02-03T06:32:28.845Z,74.46
2023-02-03T06:33:00.586Z,74.72
2023-02-03T06:33:41.684Z,74.31
2023-02-03T06:34:15.552Z,74.50
2023-02-03T06:34:47.396Z,74.21
2023-02-03T06:35:19.056Z,74.09
2023-02-03T06:35:50.691Z,74.12
2023-02-03T06:36:22.558Z,73.86
2023-02-03T06:36:54.206Z,74.47
2023-02-03T06:37:25.832Z,74.18
2023-02-03T06:38:00.579Z,74.51
2023-02-03T06:38:32.235Z,73.99
2023-02-03T06:39:03.981Z,74.13
2023-02-03T06:39:38.186Z,74.13
2023-02-03T06:40:11.531Z,74.49
2023-02-03T06:40:43.197Z,74.74
2023-02-03T06:41:14.913Z,74.56
2023-02-03T06:41:46.586Z,74.35
2023-02-03T06:42:20.272Z,74.54
2023-02-03T06:42:51.963Z,74.71
2023-02-03T06:43:23.651Z,74.76
2023-02-03T06:43:55.321Z,74.67
2023-02-03T06:44:29.219Z,74.54
2023-02-03T06:45:01.019Z,74.72
2023-02-03T06:45:32.731Z,74.74
2023-02-03T06:46:04.606Z,74.80
2023-02-03T06:46:36.294Z,74.85
2023-02-03T06:47:08.021Z,75.25
2023-02-03T06:47:41.302Z,75.11
2023-02-03T06:48:13.071Z,74.80
2023-02-03T06:48:44.680Z,74.65
2023-02-03T06:49:17.551Z,74.82
2023-02-03T06:49:49.215Z,74.39
2023-02-03T06:50:23.089Z,74.66
2023-02-03T06:50:57.769Z,74.76
2023-02-03T06:51:29.466Z,74.59
2023-02-03T06:52:01.101Z,74.63
2023-02-03T06:52:32.788Z,75.22
2023-02-03T06:53:04.478Z,75.13
2023-02-03T06:53:36.156Z,74.98
2023-02-03T06:54:11.625Z,75.26
2023-02-03T06:54:46.521Z,75.01
2023-02-03T06:55:18.242Z,75.17
2023-02-03T06:55:49.883Z,75.05
2023-02-03T06:56:21.503Z,74.73
2023-02-03T06:56:54.119Z,75.02
2023-02-03T06:58:11.265Z,75.19
2023-02-03T06:58:42.969Z,75.05
2023-02-03T06:59:14.589Z,75.11
2023-02-03T06:59:53.707Z,75.35
2023-02-03T07:00:28.744Z,75.50
2023-02-03T07:01:02.164Z,75.23
2023-02-03T07:01:33.892Z,75.37
2023-02-03T07:02:05.613Z,75.02
2023-02-03T07:02:37.278Z,75.20
2023-02-03T07:03:09.188Z,74.80
2023-02-03T07:03:40.863Z,74.90
2023-02-03T07:04:12.617Z,75.13
2023-02-03T07:04:47.468Z,75.07
2023-02-03T07:05:19.116Z,75.31
2023-02-03T07:05:50.795Z,75.08
2023-02-03T07:06:22.523Z,75.34
2023-02-03T07:06:54.348Z,75.35
2023-02-03T07:07:25.982Z,75.19
2023-02-03T07:07:57.713Z,75.30
2023-02-03T07:08:29.350Z,74.90
2023-02-03T07:09:06.026Z,74.72
2023-02-03T07:09:38.208Z,74.59
2023-02-03T07:10:10.355Z,74.64
2023-02-03T07:10:42.016Z,74.66
2023-02-03T07:11:16.143Z,74.51
2023-02-03T07:11:50.983Z,74.73
2023-02-03T07:12:22.609Z,74.75
2023-02-03T07:13:39.850Z,74.86
2023-02-03T07:14:11.493Z,74.92
2023-02-03T07:14:43.218Z,75.12
2023-02-03T07:15:14.893Z,75.09
2023-02-03T07:15:46.546Z,75.41
2023-02-03T07:16:18.720Z,75.25
2023-02-03T07:16:50.411Z,75.41
2023-02-03T07:17:22.075Z,75.14
2023-02-03T07:17:57.057Z,75.05
2023-02-03T07:18:45.948Z,74.92
2023-02-03T07:19:18.806Z,75.00
2023-02-03T07:19:50.551Z,74.91
2023-02-03T07:20:24.113Z,75.05
2023-02-03T07:20:55.748Z,74.59
2023-02-03T07:21:27.386Z,74.54
2023-02-03T07:21:59.048Z,74.29
2023-02-03T07:22:35.890Z,73.99
2023-02-03T07:23:10.979Z,74.83
2023-02-03T07:23:42.708Z,74.67
2023-02-03T07:24:14.640Z,74.66
2023-02-03T07:24:46.353Z,74.90
2023-02-03T07:25:21.493Z,74.44
2023-02-03T07:25:54.187Z,74.67
2023-02-03T07:26:26.608Z,74.94
2023-02-03T07:26:58.420Z,74.99
2023-02-03T07:27:30.083Z,74.61
2023-02-03T07:28:01.767Z,74.29
2023-02-03T07:28:36.792Z,74.28
2023-02-03T07:29:09.702Z,74.23
2023-02-03T07:29:41.361Z,74.68
2023-02-03T07:30:13.477Z,74.00
2023-02-03T07:30:45.255Z,74.03
2023-02-03T07:31:17.015Z,73.91
2023-02-03T07:31:48.795Z,74.23
2023-02-03T07:32:20.495Z,74.08
2023-02-03T07:32:53.211Z,73.86
2023-02-03T07:33:24.866Z,74.02
2023-02-03T07:33:59.291Z,73.52
2023-02-03T07:34:30.965Z,73.75
2023-02-03T07:35:02.592Z,74.05